sensor_id;sensor_type;location;lat;lon;timestamp;P1;durP1;ratioP1;P2;durP2;ratioP2
11394;SDS011;5753;54.402;10.220;2023-04-03T00:01:44;2.00;;;0.77;;
11394;SDS011;5753;54.402;10.220;2023-04-03T00:04:10;0.90;;;0.90;;
11394;SDS011;5753;54.402;10.220;2023-04-03T00:06:36;3.08;;;1.10;;
11394;SDS011;5753;54.402;10.220;2023-04-03T00:09:03;2.72;;;1.65;;
11394;SDS011;5753;54.402;10.220;2023-04-03T00:11:29;3.00;;;1.35;;
11394;SDS011;5753;54.402;10.220;2023-04-03T00:13:55;1.00;;;0.80;;
11394;SDS011;5753;54.402;10.220;2023-04-03T00:16:21;4.20;;;1.52;;
11394;SDS011;5753;54.402;10.220;2023-04-03T00:18:47;2.78;;;1.25;;
11394;SDS011;5753;54.402;10.220;2023-04-03T00:21:13;0.77;;;0.70;;
11394;SDS011;5753;54.402;10.220;2023-04-03T00:23:40;3.25;;;1.25;;
11394;SDS011;5753;54.402;10.220;2023-04-03T00:26:07;0.85;;;0.70;;
11394;SDS011;5753;54.402;10.220;2023-04-03T00:28:33;0.20;;;0.20;;
11394;SDS011;5753;54.402;10.220;2023-04-03T00:30:59;1.35;;;1.05;;
11394;SDS011;5753;54.402;10.220;2023-04-03T00:33:25;7.68;;;4.95;;
11394;SDS011;5753;54.402;10.220;2023-04-03T00:35:51;0.57;;;0.52;;
11394;SDS011;5753;54.402;10.220;2023-04-03T00:38:18;0.65;;;0.57;;
11394;SDS011;5753;54.402;10.220;2023-04-03T00:40:45;11.25;;;1.27;;
11394;SDS011;5753;54.402;10.220;2023-04-03T00:43:17;0.68;;;0.43;;
11394;SDS011;5753;54.402;10.220;2023-04-03T00:45:47;1.73;;;1.02;;
11394;SDS011;5753;54.402;10.220;2023-04-03T00:48:21;2.38;;;1.55;;
11394;SDS011;5753;54.402;10.220;2023-04-03T00:50:51;2.45;;;1.88;;
11394;SDS011;5753;54.402;10.220;2023-04-03T00:53:19;3.47;;;0.88;;
11394;SDS011;5753;54.402;10.220;2023-04-03T00:55:49;1.35;;;0.50;;
11394;SDS011;5753;54.402;10.220;2023-04-03T00:58:19;1.20;;;0.95;;
11394;SDS011;5753;54.402;10.220;2023-04-03T01:00:51;0.20;;;0.20;;
11394;SDS011;5753;54.402;10.220;2023-04-03T01:03:22;1.67;;;0.98;;
11394;SDS011;5753;54.402;10.220;2023-04-03T01:05:48;0.80;;;0.80;;
11394;SDS011;5753;54.402;10.220;2023-04-03T01:08:15;4.20;;;0.85;;
11394;SDS011;5753;54.402;10.220;2023-04-03T01:10:41;2.63;;;1.25;;
11394;SDS011;5753;54.402;10.220;2023-04-03T01:13:22;1.60;;;0.70;;
11394;SDS011;5753;54.402;10.220;2023-04-03T01:15:53;2.67;;;0.82;;
11394;SDS011;5753;54.402;10.220;2023-04-03T01:18:20;0.63;;;0.63;;
11394;SDS011;5753;54.402;10.220;2023-04-03T01:23:22;1.73;;;1.63;;
11394;SDS011;5753;54.402;10.220;2023-04-03T01:26:02;0.60;;;0.60;;
11394;SDS011;5753;54.402;10.220;2023-04-03T01:28:30;1.80;;;1.70;;
11394;SDS011;5753;54.402;10.220;2023-04-03T01:33:53;1.77;;;1.17;;
11394;SDS011;5753;54.402;10.220;2023-04-03T01:36:24;1.90;;;1.30;;
11394;SDS011;5753;54.402;10.220;2023-04-03T01:38:53;2.47;;;1.02;;
11394;SDS011;5753;54.402;10.220;2023-04-03T01:41:21;2.70;;;1.13;;
11394;SDS011;5753;54.402;10.220;2023-04-03T01:43:48;1.27;;;1.17;;
11394;SDS011;5753;54.402;10.220;2023-04-03T01:46:15;1.70;;;1.58;;
11394;SDS011;5753;54.402;10.220;2023-04-03T01:48:41;1.52;;;1.05;;
11394;SDS011;5753;54.402;10.220;2023-04-03T01:51:08;1.27;;;0.90;;
11394;SDS011;5753;54.402;10.220;2023-04-03T01:53:34;0.98;;;0.80;;
11394;SDS011;5753;54.402;10.220;2023-04-03T01:56:00;1.75;;;0.93;;
11394;SDS011;5753;54.402;10.220;2023-04-03T01:58:27;4.30;;;2.25;;
11394;SDS011;5753;54.402;10.220;2023-04-03T02:00:53;2.33;;;1.25;;
11394;SDS011;5753;54.402;10.220;2023-04-03T02:03:20;2.22;;;1.38;;
11394;SDS011;5753;54.402;10.220;2023-04-03T02:05:46;4.15;;;2.28;;
11394;SDS011;5753;54.402;10.220;2023-04-03T02:08:12;1.02;;;1.00;;
11394;SDS011;5753;54.402;10.220;2023-04-03T02:10:39;3.40;;;1.20;;
11394;SDS011;5753;54.402;10.220;2023-04-03T02:13:05;2.75;;;0.80;;
11394;SDS011;5753;54.402;10.220;2023-04-03T02:15:31;3.20;;;1.63;;
11394;SDS011;5753;54.402;10.220;2023-04-03T02:17:57;5.45;;;1.58;;
11394;SDS011;5753;54.402;10.220;2023-04-03T02:20:23;2.75;;;0.90;;
11394;SDS011;5753;54.402;10.220;2023-04-03T02:22:50;1.75;;;1.10;;
11394;SDS011;5753;54.402;10.220;2023-04-03T02:25:16;1.35;;;0.98;;
11394;SDS011;5753;54.402;10.220;2023-04-03T02:27:43;2.53;;;1.33;;
11394;SDS011;5753;54.402;10.220;2023-04-03T02:30:09;4.45;;;1.20;;
11394;SDS011;5753;54.402;10.220;2023-04-03T02:32:36;1.02;;;0.77;;
11394;SDS011;5753;54.402;10.220;2023-04-03T02:35:02;3.92;;;1.08;;
11394;SDS011;5753;54.402;10.220;2023-04-03T02:37:29;1.98;;;1.15;;
11394;SDS011;5753;54.402;10.220;2023-04-03T02:39:55;3.13;;;1.55;;
11394;SDS011;5753;54.402;10.220;2023-04-03T02:42:21;2.03;;;1.60;;
11394;SDS011;5753;54.402;10.220;2023-04-03T02:44:47;2.95;;;2.30;;
11394;SDS011;5753;54.402;10.220;2023-04-03T02:47:13;1.27;;;1.02;;
11394;SDS011;5753;54.402;10.220;2023-04-03T02:49:40;0.50;;;0.50;;
11394;SDS011;5753;54.402;10.220;2023-04-03T02:52:06;7.55;;;1.42;;
11394;SDS011;5753;54.402;10.220;2023-04-03T02:54:32;4.80;;;1.30;;
11394;SDS011;5753;54.402;10.220;2023-04-03T02:56:58;1.23;;;1.05;;
11394;SDS011;5753;54.402;10.220;2023-04-03T02:59:24;4.57;;;1.92;;
11394;SDS011;5753;54.402;10.220;2023-04-03T03:01:50;2.05;;;0.88;;
11394;SDS011;5753;54.402;10.220;2023-04-03T03:04:17;7.07;;;1.73;;
11394;SDS011;5753;54.402;10.220;2023-04-03T03:06:43;3.25;;;1.60;;
11394;SDS011;5753;54.402;10.220;2023-04-03T03:09:09;1.52;;;1.15;;
11394;SDS011;5753;54.402;10.220;2023-04-03T03:11:36;6.07;;;0.80;;
11394;SDS011;5753;54.402;10.220;2023-04-03T03:14:02;2.75;;;1.38;;
11394;SDS011;5753;54.402;10.220;2023-04-03T03:16:28;3.50;;;0.82;;
11394;SDS011;5753;54.402;10.220;2023-04-03T03:18:54;2.30;;;1.85;;
11394;SDS011;5753;54.402;10.220;2023-04-03T03:21:20;8.95;;;2.53;;
11394;SDS011;5753;54.402;10.220;2023-04-03T03:23:47;4.00;;;1.50;;
11394;SDS011;5753;54.402;10.220;2023-04-03T03:26:13;8.73;;;1.80;;
11394;SDS011;5753;54.402;10.220;2023-04-03T03:28:39;3.05;;;1.95;;
11394;SDS011;5753;54.402;10.220;2023-04-03T03:31:06;2.78;;;2.20;;
11394;SDS011;5753;54.402;10.220;2023-04-03T03:33:33;3.83;;;1.73;;
11394;SDS011;5753;54.402;10.220;2023-04-03T03:35:59;1.65;;;1.55;;
11394;SDS011;5753;54.402;10.220;2023-04-03T03:38:25;7.72;;;2.53;;
11394;SDS011;5753;54.402;10.220;2023-04-03T03:40:52;3.10;;;2.20;;
11394;SDS011;5753;54.402;10.220;2023-04-03T03:43:18;5.57;;;2.13;;
11394;SDS011;5753;54.402;10.220;2023-04-03T03:45:46;6.45;;;1.98;;
11394;SDS011;5753;54.402;10.220;2023-04-03T03:48:16;5.65;;;1.73;;
11394;SDS011;5753;54.402;10.220;2023-04-03T03:50:43;2.58;;;1.88;;
11394;SDS011;5753;54.402;10.220;2023-04-03T03:53:10;5.57;;;1.77;;
11394;SDS011;5753;54.402;10.220;2023-04-03T03:55:36;3.25;;;1.52;;
11394;SDS011;5753;54.402;10.220;2023-04-03T03:58:02;2.35;;;1.60;;
11394;SDS011;5753;54.402;10.220;2023-04-03T04:00:28;1.55;;;1.45;;
11394;SDS011;5753;54.402;10.220;2023-04-03T04:02:55;3.20;;;2.10;;
11394;SDS011;5753;54.402;10.220;2023-04-03T04:05:22;2.30;;;1.77;;
11394;SDS011;5753;54.402;10.220;2023-04-03T04:07:48;3.03;;;1.65;;
11394;SDS011;5753;54.402;10.220;2023-04-03T04:10:14;4.60;;;1.60;;
11394;SDS011;5753;54.402;10.220;2023-04-03T04:12:40;3.53;;;1.52;;
11394;SDS011;5753;54.402;10.220;2023-04-03T04:15:07;6.78;;;2.75;;
11394;SDS011;5753;54.402;10.220;2023-04-03T04:17:34;2.67;;;1.80;;
11394;SDS011;5753;54.402;10.220;2023-04-03T04:20:00;1.60;;;1.50;;
11394;SDS011;5753;54.402;10.220;2023-04-03T04:22:27;7.25;;;3.35;;
11394;SDS011;5753;54.402;10.220;2023-04-03T04:24:53;5.70;;;2.08;;
11394;SDS011;5753;54.402;10.220;2023-04-03T04:27:20;2.10;;;1.90;;
11394;SDS011;5753;54.402;10.220;2023-04-03T04:29:46;6.15;;;2.10;;
11394;SDS011;5753;54.402;10.220;2023-04-03T04:32:12;4.65;;;3.90;;
11394;SDS011;5753;54.402;10.220;2023-04-03T04:34:38;3.05;;;1.73;;
11394;SDS011;5753;54.402;10.220;2023-04-03T04:37:04;1.58;;;1.40;;
11394;SDS011;5753;54.402;10.220;2023-04-03T04:39:30;2.10;;;1.50;;
11394;SDS011;5753;54.402;10.220;2023-04-03T04:41:57;5.03;;;1.98;;
11394;SDS011;5753;54.402;10.220;2023-04-03T04:44:23;6.95;;;2.88;;
11394;SDS011;5753;54.402;10.220;2023-04-03T04:46:49;5.70;;;2.42;;
11394;SDS011;5753;54.402;10.220;2023-04-03T04:49:15;4.97;;;3.67;;
11394;SDS011;5753;54.402;10.220;2023-04-03T04:51:41;3.15;;;1.60;;
11394;SDS011;5753;54.402;10.220;2023-04-03T04:54:07;3.35;;;2.08;;
11394;SDS011;5753;54.402;10.220;2023-04-03T04:56:34;2.92;;;2.17;;
11394;SDS011;5753;54.402;10.220;2023-04-03T04:59:00;7.50;;;2.25;;
11394;SDS011;5753;54.402;10.220;2023-04-03T05:01:26;4.10;;;2.28;;
11394;SDS011;5753;54.402;10.220;2023-04-03T05:03:53;3.92;;;2.60;;
11394;SDS011;5753;54.402;10.220;2023-04-03T05:06:20;4.32;;;2.28;;
11394;SDS011;5753;54.402;10.220;2023-04-03T05:08:46;2.40;;;2.20;;
11394;SDS011;5753;54.402;10.220;2023-04-03T05:11:12;2.20;;;2.00;;
11394;SDS011;5753;54.402;10.220;2023-04-03T05:13:38;4.20;;;3.28;;
11394;SDS011;5753;54.402;10.220;2023-04-03T05:16:04;4.40;;;1.70;;
11394;SDS011;5753;54.402;10.220;2023-04-03T05:18:31;2.10;;;1.95;;
11394;SDS011;5753;54.402;10.220;2023-04-03T05:20:57;4.55;;;2.42;;
11394;SDS011;5753;54.402;10.220;2023-04-03T05:23:23;7.88;;;2.08;;
11394;SDS011;5753;54.402;10.220;2023-04-03T05:25:50;2.20;;;2.00;;
11394;SDS011;5753;54.402;10.220;2023-04-03T05:28:16;2.03;;;1.90;;
11394;SDS011;5753;54.402;10.220;2023-04-03T05:30:42;3.97;;;2.42;;
11394;SDS011;5753;54.402;10.220;2023-04-03T05:33:08;4.50;;;4.10;;
11394;SDS011;5753;54.402;10.220;2023-04-03T05:35:35;4.47;;;2.67;;
11394;SDS011;5753;54.402;10.220;2023-04-03T05:38:05;13.25;;;4.65;;
11394;SDS011;5753;54.402;10.220;2023-04-03T05:40:31;2.65;;;2.33;;
11394;SDS011;5753;54.402;10.220;2023-04-03T05:42:58;5.85;;;2.75;;
11394;SDS011;5753;54.402;10.220;2023-04-03T05:45:24;3.55;;;2.70;;
11394;SDS011;5753;54.402;10.220;2023-04-03T05:47:50;4.97;;;2.72;;
11394;SDS011;5753;54.402;10.220;2023-04-03T05:50:16;4.18;;;2.50;;
11394;SDS011;5753;54.402;10.220;2023-04-03T05:52:43;3.08;;;2.55;;
11394;SDS011;5753;54.402;10.220;2023-04-03T05:55:13;5.35;;;2.95;;
11394;SDS011;5753;54.402;10.220;2023-04-03T05:57:39;4.18;;;2.70;;
11394;SDS011;5753;54.402;10.220;2023-04-03T06:00:06;2.55;;;2.35;;
11394;SDS011;5753;54.402;10.220;2023-04-03T06:02:37;10.70;;;3.42;;
11394;SDS011;5753;54.402;10.220;2023-04-03T06:05:04;3.78;;;2.92;;
11394;SDS011;5753;54.402;10.220;2023-04-03T06:07:30;6.32;;;3.90;;
11394;SDS011;5753;54.402;10.220;2023-04-03T06:09:56;7.22;;;3.22;;
11394;SDS011;5753;54.402;10.220;2023-04-03T06:12:23;4.65;;;3.25;;
11394;SDS011;5753;54.402;10.220;2023-04-03T06:14:49;4.68;;;2.55;;
11394;SDS011;5753;54.402;10.220;2023-04-03T06:17:16;4.97;;;3.10;;
11394;SDS011;5753;54.402;10.220;2023-04-03T06:19:43;10.00;;;4.90;;
11394;SDS011;5753;54.402;10.220;2023-04-03T06:22:09;8.95;;;5.15;;
11394;SDS011;5753;54.402;10.220;2023-04-03T06:24:36;11.32;;;5.38;;
11394;SDS011;5753;54.402;10.220;2023-04-03T06:27:03;4.03;;;2.72;;
11394;SDS011;5753;54.402;10.220;2023-04-03T06:29:29;6.30;;;3.28;;
11394;SDS011;5753;54.402;10.220;2023-04-03T06:31:56;9.20;;;3.45;;
11394;SDS011;5753;54.402;10.220;2023-04-03T06:34:22;3.70;;;3.22;;
11394;SDS011;5753;54.402;10.220;2023-04-03T06:36:48;2.20;;;2.00;;
11394;SDS011;5753;54.402;10.220;2023-04-03T06:39:16;4.45;;;3.30;;
11394;SDS011;5753;54.402;10.220;2023-04-03T06:41:47;3.92;;;2.83;;
11394;SDS011;5753;54.402;10.220;2023-04-03T06:44:14;3.50;;;3.08;;
11394;SDS011;5753;54.402;10.220;2023-04-03T06:46:41;7.25;;;3.05;;
11394;SDS011;5753;54.402;10.220;2023-04-03T06:49:08;4.10;;;3.33;;
11394;SDS011;5753;54.402;10.220;2023-04-03T06:51:35;4.97;;;3.45;;
11394;SDS011;5753;54.402;10.220;2023-04-03T06:54:01;9.38;;;6.22;;
11394;SDS011;5753;54.402;10.220;2023-04-03T06:56:29;14.43;;;6.22;;
11394;SDS011;5753;54.402;10.220;2023-04-03T06:58:55;6.50;;;5.88;;
11394;SDS011;5753;54.402;10.220;2023-04-03T07:01:23;8.50;;;6.10;;
11394;SDS011;5753;54.402;10.220;2023-04-03T07:03:51;7.40;;;5.95;;
11394;SDS011;5753;54.402;10.220;2023-04-03T07:06:18;6.93;;;5.75;;
11394;SDS011;5753;54.402;10.220;2023-04-03T07:08:45;6.70;;;5.90;;
11394;SDS011;5753;54.402;10.220;2023-04-03T07:11:13;11.60;;;6.43;;
11394;SDS011;5753;54.402;10.220;2023-04-03T07:13:40;4.55;;;3.33;;
11394;SDS011;5753;54.402;10.220;2023-04-03T07:16:07;4.68;;;3.35;;
11394;SDS011;5753;54.402;10.220;2023-04-03T07:18:33;4.57;;;1.85;;
11394;SDS011;5753;54.402;10.220;2023-04-03T07:21:00;2.17;;;1.73;;
11394;SDS011;5753;54.402;10.220;2023-04-03T07:23:26;2.67;;;1.80;;
11394;SDS011;5753;54.402;10.220;2023-04-03T07:25:53;1.80;;;1.45;;
11394;SDS011;5753;54.402;10.220;2023-04-03T07:28:20;1.08;;;0.77;;
11394;SDS011;5753;54.402;10.220;2023-04-03T07:30:51;1.38;;;0.95;;
11394;SDS011;5753;54.402;10.220;2023-04-03T07:33:26;4.60;;;1.33;;
11394;SDS011;5753;54.402;10.220;2023-04-03T07:35:52;3.15;;;1.70;;
11394;SDS011;5753;54.402;10.220;2023-04-03T07:38:18;5.57;;;2.05;;
11394;SDS011;5753;54.402;10.220;2023-04-03T07:40:45;1.63;;;0.90;;
11394;SDS011;5753;54.402;10.220;2023-04-03T07:43:13;1.73;;;0.80;;
11394;SDS011;5753;54.402;10.220;2023-04-03T07:45:40;3.75;;;3.00;;
11394;SDS011;5753;54.402;10.220;2023-04-03T07:48:06;2.78;;;1.40;;
11394;SDS011;5753;54.402;10.220;2023-04-03T07:50:33;7.75;;;1.35;;
11394;SDS011;5753;54.402;10.220;2023-04-03T07:52:59;3.75;;;1.27;;
11394;SDS011;5753;54.402;10.220;2023-04-03T07:55:25;1.05;;;0.90;;
11394;SDS011;5753;54.402;10.220;2023-04-03T07:57:51;2.67;;;2.10;;
11394;SDS011;5753;54.402;10.220;2023-04-03T08:00:18;4.38;;;1.17;;
11394;SDS011;5753;54.402;10.220;2023-04-03T08:02:44;1.95;;;1.48;;
11394;SDS011;5753;54.402;10.220;2023-04-03T08:05:17;0.90;;;0.70;;
11394;SDS011;5753;54.402;10.220;2023-04-03T08:07:44;4.80;;;2.10;;
11394;SDS011;5753;54.402;10.220;2023-04-03T08:10:10;0.65;;;0.65;;
11394;SDS011;5753;54.402;10.220;2023-04-03T08:12:37;5.38;;;1.95;;
11394;SDS011;5753;54.402;10.220;2023-04-03T08:15:03;0.73;;;0.50;;
11394;SDS011;5753;54.402;10.220;2023-04-03T08:17:32;2.40;;;1.13;;
11394;SDS011;5753;54.402;10.220;2023-04-03T08:19:58;1.90;;;0.40;;
11394;SDS011;5753;54.402;10.220;2023-04-03T08:22:24;1.38;;;0.93;;
11394;SDS011;5753;54.402;10.220;2023-04-03T08:24:51;3.25;;;1.23;;
11394;SDS011;5753;54.402;10.220;2023-04-03T08:27:17;4.47;;;0.98;;
11394;SDS011;5753;54.402;10.220;2023-04-03T08:29:43;2.47;;;2.20;;
11394;SDS011;5753;54.402;10.220;2023-04-03T08:32:09;2.78;;;1.70;;
11394;SDS011;5753;54.402;10.220;2023-04-03T08:34:35;4.00;;;1.23;;
11394;SDS011;5753;54.402;10.220;2023-04-03T08:37:04;2.10;;;0.95;;
11394;SDS011;5753;54.402;10.220;2023-04-03T08:39:31;1.75;;;0.98;;
11394;SDS011;5753;54.402;10.220;2023-04-03T08:41:58;3.35;;;1.73;;
11394;SDS011;5753;54.402;10.220;2023-04-03T08:50:07;2.30;;;1.23;;
11394;SDS011;5753;54.402;10.220;2023-04-03T08:52:43;2.13;;;0.77;;
11394;SDS011;5753;54.402;10.220;2023-04-03T08:55:34;1.63;;;1.30;;
11394;SDS011;5753;54.402;10.220;2023-04-03T08:58:21;1.73;;;1.27;;
11394;SDS011;5753;54.402;10.220;2023-04-03T09:01:16;1.42;;;0.50;;
11394;SDS011;5753;54.402;10.220;2023-04-03T09:04:12;1.63;;;1.20;;
11394;SDS011;5753;54.402;10.220;2023-04-03T09:06:42;1.67;;;0.65;;
11394;SDS011;5753;54.402;10.220;2023-04-03T09:12:18;7.78;;;1.15;;
11394;SDS011;5753;54.402;10.220;2023-04-03T09:14:49;1.73;;;0.93;;
11394;SDS011;5753;54.402;10.220;2023-04-03T09:17:35;3.03;;;0.70;;
11394;SDS011;5753;54.402;10.220;2023-04-03T09:23:00;2.78;;;1.13;;
11394;SDS011;5753;54.402;10.220;2023-04-03T09:25:34;3.03;;;1.58;;
11394;SDS011;5753;54.402;10.220;2023-04-03T09:28:03;5.18;;;1.00;;
11394;SDS011;5753;54.402;10.220;2023-04-03T09:30:34;1.98;;;0.60;;
11394;SDS011;5753;54.402;10.220;2023-04-03T09:33:02;2.08;;;1.40;;
11394;SDS011;5753;54.402;10.220;2023-04-03T09:35:32;3.22;;;0.85;;
11394;SDS011;5753;54.402;10.220;2023-04-03T09:38:22;2.25;;;0.50;;
11394;SDS011;5753;54.402;10.220;2023-04-03T09:41:02;8.57;;;2.03;;
11394;SDS011;5753;54.402;10.220;2023-04-03T09:43:32;1.73;;;0.90;;
11394;SDS011;5753;54.402;10.220;2023-04-03T09:49:04;6.20;;;1.00;;
11394;SDS011;5753;54.402;10.220;2023-04-03T09:51:36;2.70;;;1.08;;
11394;SDS011;5753;54.402;10.220;2023-04-03T09:54:23;1.83;;;1.35;;
11394;SDS011;5753;54.402;10.220;2023-04-03T09:56:51;12.23;;;1.45;;
11394;SDS011;5753;54.402;10.220;2023-04-03T09:59:18;2.28;;;1.38;;
11394;SDS011;5753;54.402;10.220;2023-04-03T10:02:15;1.60;;;1.25;;
11394;SDS011;5753;54.402;10.220;2023-04-03T10:04:46;3.20;;;1.23;;
11394;SDS011;5753;54.402;10.220;2023-04-03T10:12:47;1.17;;;0.75;;
11394;SDS011;5753;54.402;10.220;2023-04-03T10:15:15;2.97;;;0.88;;
11394;SDS011;5753;54.402;10.220;2023-04-03T10:31:59;11.27;;;1.75;;
11394;SDS011;5753;54.402;10.220;2023-04-03T10:34:39;2.17;;;1.55;;
11394;SDS011;5753;54.402;10.220;2023-04-03T10:40:18;1.10;;;0.30;;
11394;SDS011;5753;54.402;10.220;2023-04-03T10:43:06;0.40;;;0.32;;
11394;SDS011;5753;54.402;10.220;2023-04-03T10:56:56;1.48;;;0.52;;
11394;SDS011;5753;54.402;10.220;2023-04-03T10:59:35;1.23;;;0.77;;
11394;SDS011;5753;54.402;10.220;2023-04-03T11:05:14;2.13;;;1.20;;
11394;SDS011;5753;54.402;10.220;2023-04-03T11:07:55;0.60;;;0.52;;
11394;SDS011;5753;54.402;10.220;2023-04-03T11:11:01;0.85;;;0.60;;
11394;SDS011;5753;54.402;10.220;2023-04-03T11:15:57;3.35;;;2.30;;
11394;SDS011;5753;54.402;10.220;2023-04-03T11:18:28;1.65;;;1.38;;
11394;SDS011;5753;54.402;10.220;2023-04-03T11:21:14;3.30;;;1.48;;
11394;SDS011;5753;54.402;10.220;2023-04-03T11:26:14;3.25;;;1.05;;
11394;SDS011;5753;54.402;10.220;2023-04-03T11:28:46;3.85;;;1.23;;
11394;SDS011;5753;54.402;10.220;2023-04-03T11:34:08;4.18;;;0.60;;
11394;SDS011;5753;54.402;10.220;2023-04-03T11:36:53;7.15;;;1.77;;
11394;SDS011;5753;54.402;10.220;2023-04-03T11:44:40;2.45;;;1.50;;
11394;SDS011;5753;54.402;10.220;2023-04-03T11:47:08;2.97;;;1.23;;
11394;SDS011;5753;54.402;10.220;2023-04-03T12:16:09;1.20;;;0.82;;
11394;SDS011;5753;54.402;10.220;2023-04-03T12:18:58;7.85;;;1.98;;
11394;SDS011;5753;54.402;10.220;2023-04-03T12:26:38;1.58;;;1.30;;
11394;SDS011;5753;54.402;10.220;2023-04-03T12:29:13;1.20;;;1.10;;
11394;SDS011;5753;54.402;10.220;2023-04-03T12:37:12;0.47;;;0.40;;
11394;SDS011;5753;54.402;10.220;2023-04-03T12:42:17;5.63;;;1.13;;
11394;SDS011;5753;54.402;10.220;2023-04-03T12:47:34;3.83;;;1.42;;
11394;SDS011;5753;54.402;10.220;2023-04-03T12:50:03;4.88;;;3.35;;
11394;SDS011;5753;54.402;10.220;2023-04-03T12:52:44;1.45;;;0.63;;
11394;SDS011;5753;54.402;10.220;2023-04-03T12:55:18;1.85;;;1.55;;
11394;SDS011;5753;54.402;10.220;2023-04-03T12:57:46;4.47;;;0.50;;
11394;SDS011;5753;54.402;10.220;2023-04-03T13:00:25;2.97;;;0.90;;
11394;SDS011;5753;54.402;10.220;2023-04-03T13:02:55;0.95;;;0.70;;
11394;SDS011;5753;54.402;10.220;2023-04-03T13:05:22;1.23;;;0.85;;
11394;SDS011;5753;54.402;10.220;2023-04-03T13:07:50;1.63;;;0.90;;
11394;SDS011;5753;54.402;10.220;2023-04-03T13:10:23;2.22;;;0.57;;
11394;SDS011;5753;54.402;10.220;2023-04-03T13:12:54;1.83;;;0.90;;
11394;SDS011;5753;54.402;10.220;2023-04-03T13:17:51;6.32;;;1.55;;
11394;SDS011;5753;54.402;10.220;2023-04-03T13:20:23;0.98;;;0.88;;
11394;SDS011;5753;54.402;10.220;2023-04-03T13:23:04;1.85;;;0.82;;
11394;SDS011;5753;54.402;10.220;2023-04-03T13:25:34;0.63;;;0.63;;
11394;SDS011;5753;54.402;10.220;2023-04-03T13:28:07;1.00;;;0.90;;
11394;SDS011;5753;54.402;10.220;2023-04-03T13:30:38;5.70;;;2.03;;
11394;SDS011;5753;54.402;10.220;2023-04-03T13:33:17;1.17;;;0.73;;
11394;SDS011;5753;54.402;10.220;2023-04-03T13:35:47;3.05;;;0.98;;
11394;SDS011;5753;54.402;10.220;2023-04-03T13:38:23;1.42;;;1.33;;
11394;SDS011;5753;54.402;10.220;2023-04-03T13:40:56;2.28;;;1.38;;
11394;SDS011;5753;54.402;10.220;2023-04-03T13:43:30;2.97;;;1.15;;
11394;SDS011;5753;54.402;10.220;2023-04-03T13:48:56;4.10;;;1.70;;
11394;SDS011;5753;54.402;10.220;2023-04-03T13:51:23;1.33;;;0.73;;
11394;SDS011;5753;54.402;10.220;2023-04-03T13:53:59;2.85;;;1.25;;
11394;SDS011;5753;54.402;10.220;2023-04-03T13:56:38;2.13;;;1.02;;
11394;SDS011;5753;54.402;10.220;2023-04-03T14:01:46;2.63;;;1.15;;
11394;SDS011;5753;54.402;10.220;2023-04-03T14:04:23;0.88;;;0.80;;
11394;SDS011;5753;54.402;10.220;2023-04-03T14:06:52;2.70;;;1.02;;
11394;SDS011;5753;54.402;10.220;2023-04-03T14:09:19;1.77;;;0.98;;
11394;SDS011;5753;54.402;10.220;2023-04-03T14:11:48;5.25;;;1.88;;
11394;SDS011;5753;54.402;10.220;2023-04-03T14:14:26;3.15;;;1.27;;
11394;SDS011;5753;54.402;10.220;2023-04-03T14:16:57;1.60;;;0.70;;
11394;SDS011;5753;54.402;10.220;2023-04-03T14:19:27;3.15;;;1.65;;
11394;SDS011;5753;54.402;10.220;2023-04-03T14:21:56;3.13;;;1.25;;
11394;SDS011;5753;54.402;10.220;2023-04-03T14:24:23;4.35;;;2.05;;
11394;SDS011;5753;54.402;10.220;2023-04-03T14:26:51;4.45;;;1.05;;
11394;SDS011;5753;54.402;10.220;2023-04-03T14:29:19;1.77;;;1.17;;
11394;SDS011;5753;54.402;10.220;2023-04-03T14:31:47;0.82;;;0.70;;
11394;SDS011;5753;54.402;10.220;2023-04-03T14:34:14;2.08;;;1.10;;
11394;SDS011;5753;54.402;10.220;2023-04-03T14:36:41;1.65;;;0.75;;
11394;SDS011;5753;54.402;10.220;2023-04-03T14:39:18;2.25;;;1.05;;
11394;SDS011;5753;54.402;10.220;2023-04-03T14:41:44;8.45;;;3.22;;
11394;SDS011;5753;54.402;10.220;2023-04-03T14:44:11;4.10;;;1.45;;
11394;SDS011;5753;54.402;10.220;2023-04-03T14:46:38;2.05;;;1.25;;
11394;SDS011;5753;54.402;10.220;2023-04-03T14:49:14;1.55;;;1.25;;
11394;SDS011;5753;54.402;10.220;2023-04-03T14:51:43;1.27;;;1.02;;
11394;SDS011;5753;54.402;10.220;2023-04-03T14:54:19;2.10;;;0.80;;
11394;SDS011;5753;54.402;10.220;2023-04-03T14:56:50;2.78;;;0.98;;
11394;SDS011;5753;54.402;10.220;2023-04-03T14:59:17;1.42;;;0.88;;
11394;SDS011;5753;54.402;10.220;2023-04-03T15:01:45;1.63;;;1.00;;
11394;SDS011;5753;54.402;10.220;2023-04-03T15:04:15;2.47;;;1.00;;
11394;SDS011;5753;54.402;10.220;2023-04-03T15:06:43;2.17;;;1.13;;
11394;SDS011;5753;54.402;10.220;2023-04-03T15:09:21;4.72;;;2.25;;
11394;SDS011;5753;54.402;10.220;2023-04-03T15:11:52;2.20;;;1.08;;
11394;SDS011;5753;54.402;10.220;2023-04-03T15:14:19;3.10;;;1.23;;
11394;SDS011;5753;54.402;10.220;2023-04-03T15:16:46;6.38;;;1.77;;
11394;SDS011;5753;54.402;10.220;2023-04-03T15:19:13;1.05;;;0.88;;
11394;SDS011;5753;54.402;10.220;2023-04-03T15:21:39;1.40;;;0.93;;
11394;SDS011;5753;54.402;10.220;2023-04-03T15:24:06;2.85;;;1.33;;
11394;SDS011;5753;54.402;10.220;2023-04-03T15:26:33;1.35;;;1.00;;
11394;SDS011;5753;54.402;10.220;2023-04-03T15:28:59;1.27;;;1.13;;
11394;SDS011;5753;54.402;10.220;2023-04-03T15:31:26;12.48;;;3.90;;
11394;SDS011;5753;54.402;10.220;2023-04-03T15:33:53;2.80;;;0.80;;
11394;SDS011;5753;54.402;10.220;2023-04-03T15:36:19;8.48;;;1.60;;
11394;SDS011;5753;54.402;10.220;2023-04-03T15:38:45;1.08;;;0.75;;
11394;SDS011;5753;54.402;10.220;2023-04-03T15:41:11;3.75;;;1.25;;
11394;SDS011;5753;54.402;10.220;2023-04-03T15:43:38;3.85;;;1.13;;
11394;SDS011;5753;54.402;10.220;2023-04-03T15:46:04;2.35;;;0.80;;
11394;SDS011;5753;54.402;10.220;2023-04-03T15:48:30;2.92;;;1.20;;
11394;SDS011;5753;54.402;10.220;2023-04-03T15:50:57;8.13;;;2.60;;
11394;SDS011;5753;54.402;10.220;2023-04-03T15:53:24;4.78;;;1.90;;
11394;SDS011;5753;54.402;10.220;2023-04-03T15:55:51;3.17;;;1.30;;
11394;SDS011;5753;54.402;10.220;2023-04-03T15:58:17;1.10;;;1.00;;
11394;SDS011;5753;54.402;10.220;2023-04-03T16:00:43;1.75;;;1.00;;
11394;SDS011;5753;54.402;10.220;2023-04-03T16:03:16;2.08;;;0.68;;
11394;SDS011;5753;54.402;10.220;2023-04-03T16:05:44;7.30;;;1.80;;
11394;SDS011;5753;54.402;10.220;2023-04-03T16:08:11;1.98;;;0.82;;
11394;SDS011;5753;54.402;10.220;2023-04-03T16:10:38;5.00;;;1.85;;
11394;SDS011;5753;54.402;10.220;2023-04-03T16:13:04;5.45;;;1.40;;
11394;SDS011;5753;54.402;10.220;2023-04-03T16:15:31;5.20;;;1.27;;
11394;SDS011;5753;54.402;10.220;2023-04-03T16:17:59;6.95;;;2.15;;
11394;SDS011;5753;54.402;10.220;2023-04-03T16:20:25;2.85;;;2.55;;
11394;SDS011;5753;54.402;10.220;2023-04-03T16:22:52;6.53;;;1.20;;
11394;SDS011;5753;54.402;10.220;2023-04-03T16:25:19;7.80;;;1.13;;
11394;SDS011;5753;54.402;10.220;2023-04-03T16:27:45;3.38;;;2.05;;
11394;SDS011;5753;54.402;10.220;2023-04-03T16:30:12;1.33;;;1.23;;
11394;SDS011;5753;54.402;10.220;2023-04-03T16:32:39;2.63;;;1.67;;
11394;SDS011;5753;54.402;10.220;2023-04-03T16:35:06;4.68;;;1.55;;
11394;SDS011;5753;54.402;10.220;2023-04-03T16:37:33;5.47;;;2.15;;
11394;SDS011;5753;54.402;10.220;2023-04-03T16:39:59;3.35;;;1.15;;
11394;SDS011;5753;54.402;10.220;2023-04-03T16:42:25;3.45;;;1.02;;
11394;SDS011;5753;54.402;10.220;2023-04-03T16:44:52;2.15;;;1.20;;
11394;SDS011;5753;54.402;10.220;2023-04-03T16:47:18;5.70;;;1.52;;
11394;SDS011;5753;54.402;10.220;2023-04-03T16:49:44;3.63;;;1.02;;
11394;SDS011;5753;54.402;10.220;2023-04-03T16:52:11;4.82;;;1.35;;
11394;SDS011;5753;54.402;10.220;2023-04-03T16:54:39;2.72;;;1.67;;
11394;SDS011;5753;54.402;10.220;2023-04-03T16:57:05;3.83;;;2.33;;
11394;SDS011;5753;54.402;10.220;2023-04-03T16:59:31;2.80;;;0.88;;